Time,TemperatureF,DewpointF,PressureIn,WindDirection,WindDirectionDegrees,WindSpeedMPH,WindSpeedGustMPH,Humidity,HourlyPrecipIn,Conditions,Clouds,dailyrainin,SoftwareType,DateUTC
2013-06-14 00:01:00,55.0,47.0,30.01,NNW,328,8.0,13.0,75,0.00,,,0.06,,2013-06-13 23:01:00,
2013-06-14 00:32:00,53.0,46.0,30.02,WNW,292,5.0,12.0,78,0.00,,,0.06,,2013-06-13 23:32:00,
2013-06-14 00:41:00,52.0,46.0,30.03,NW,323,7.0,12.0,81,0.00,,,0.06,,2013-06-13 23:41:00,
2013-06-14 00:43:00,53.0,46.0,30.02,WNW,292,5.0,12.0,78,0.00,,,0.06,,2013-06-13 23:43:00,
2013-06-14 00:52:00,53.0,46.0,30.02,WNW,292,5.0,12.0,78,0.00,,,0.06,,2013-06-13 23:52:00,
2013-06-14 01:01:00,52.0,46.0,30.03,NW,323,7.0,12.0,81,0.00,,,0.06,,2013-06-14 00:01:00,
2013-06-14 01:11:00,52.0,46.0,30.03,NW,323,7.0,12.0,81,0.00,,,0.06,,2013-06-14 00:11:00,
2013-06-14 01:22:00,52.0,46.0,30.03,NW,323,7.0,12.0,81,0.00,,,0.06,,2013-06-14 00:22:00,
2013-06-14 01:33:00,52.0,46.0,30.03,NW,323,7.0,12.0,81,0.00,,,0.06,,2013-06-14 00:33:00,
2013-06-14 02:22:00,50.0,46.0,30.02,WNW,292,3.0,9.0,85,0.00,,,0.05,,2013-06-14 01:22:00,
2013-06-14 02:33:00,50.0,46.0,30.02,WNW,292,3.0,9.0,85,0.00,,,0.05,,2013-06-14 01:33:00,
2013-06-14 02:43:00,50.0,46.0,30.03,WNW,301,2.0,8.0,85,0.00,,,0.05,,2013-06-14 01:43:00,
2013-06-14 02:52:00,50.0,46.0,30.03,WNW,301,2.0,8.0,85,0.00,,,0.05,,2013-06-14 01:52:00,
2013-06-14 03:01:00,50.0,46.0,30.03,WNW,301,2.0,8.0,85,0.00,,,0.05,,2013-06-14 02:01:00,
2013-06-14 03:11:00,49.0,45.0,30.03,WNW,283,6.0,8.0,86,0.00,,,0.02,,2013-06-14 02:11:00,
2013-06-14 03:22:00,49.0,45.0,30.03,West,280,3.0,8.0,86,0.00,,,0.00,,2013-06-14 02:22:00,
2013-06-14 03:32:00,49.0,45.0,30.03,West,280,3.0,8.0,86,0.00,,,0.00,,2013-06-14 02:32:00,
2013-06-14 03:43:00,49.0,45.0,30.03,West,280,3.0,8.0,86,0.00,,,0.00,,2013-06-14 02:43:00,
2013-06-14 03:52:00,49.0,45.0,30.03,WNW,290,3.0,8.0,86,0.00,,,0.00,,2013-06-14 02:52:00,
2013-06-14 04:01:00,49.0,45.0,30.03,WNW,290,3.0,8.0,86,0.00,,,0.00,,2013-06-14 03:01:00,
2013-06-14 04:11:00,49.0,45.0,30.03,WNW,286,2.0,7.0,87,0.00,,,0.00,,2013-06-14 03:11:00,
2013-06-14 04:22:00,49.0,45.0,30.03,WNW,285,3.0,7.0,87,0.00,,,0.00,,2013-06-14 03:22:00,
2013-06-14 04:34:00,49.0,45.0,30.03,WNW,285,3.0,7.0,87,0.00,,,0.00,,2013-06-14 03:34:00,
2013-06-14 04:43:00,49.0,45.0,30.03,WNW,285,3.0,7.0,87,0.00,,,0.00,,2013-06-14 03:43:00,
2013-06-14 04:52:00,49.0,45.0,30.03,WNW,285,3.0,7.0,87,0.00,,,0.00,,2013-06-14 03:52:00,
2013-06-14 05:01:00,48.0,45.0,30.03,West,268,3.0,8.0,88,0.00,,,0.00,,2013-06-14 04:01:00,
2013-06-14 05:12:00,48.0,45.0,30.03,West,268,3.0,8.0,88,0.00,,,0.00,,2013-06-14 04:12:00,
2013-06-14 05:22:00,48.0,45.0,30.03,WNW,298,5.0,9.0,88,0.00,,,0.00,,2013-06-14 04:22:00,
2013-06-14 05:31:00,48.0,45.0,30.04,WNW,286,3.0,8.0,88,0.00,,,0.00,,2013-06-14 04:31:00,
2013-06-14 05:33:00,48.0,45.0,30.03,WNW,298,5.0,9.0,88,0.00,,,0.00,,2013-06-14 04:33:00,
2013-06-14 05:43:00,48.0,45.0,30.03,WNW,298,5.0,9.0,88,0.00,,,0.00,,2013-06-14 04:43:00,
2013-06-14 05:53:00,48.0,45.0,30.04,WNW,286,3.0,8.0,88,0.00,,,0.00,,2013-06-14 04:53:00,
2013-06-14 06:01:00,48.0,45.0,30.04,WNW,286,3.0,8.0,88,0.00,,,0.00,,2013-06-14 05:01:00,
2013-06-14 06:11:00,48.0,45.0,30.04,WNW,286,3.0,8.0,88,0.00,,,0.00,,2013-06-14 05:11:00,
2013-06-14 06:22:00,48.0,45.0,30.04,WNW,286,3.0,8.0,88,0.00,,,0.00,,2013-06-14 05:22:00,
2013-06-14 06:52:00,51.0,47.0,30.04,West,265,4.0,10.0,86,0.00,,,0.00,,2013-06-14 05:52:00,
2013-06-14 07:02:00,51.0,47.0,30.04,West,265,4.0,10.0,86,0.00,,,0.00,,2013-06-14 06:02:00,
2013-06-14 07:12:00,52.0,48.0,30.03,West,281,5.0,9.0,87,0.00,,,0.00,,2013-06-14 06:12:00,
2013-06-14 07:22:00,52.0,48.0,30.03,West,270,3.0,12.0,87,0.00,,,0.00,,2013-06-14 06:22:00,
2013-06-14 07:33:00,52.0,48.0,30.03,WNW,282,5.0,8.0,87,0.00,,,0.00,,2013-06-14 06:33:00,
2013-06-14 07:41:00,54.0,50.0,30.03,WSW,252,3.0,9.0,86,0.00,,,0.00,,2013-06-14 06:41:00,
2013-06-14 07:43:00,53.0,49.0,30.03,West,274,5.0,7.0,86,0.00,,,0.00,,2013-06-14 06:43:00,
2013-06-14 07:52:00,53.0,49.0,30.03,West,274,5.0,7.0,86,0.00,,,0.00,,2013-06-14 06:52:00,
2013-06-14 08:02:00,54.0,50.0,30.03,WSW,252,3.0,9.0,86,0.00,,,0.00,,2013-06-14 07:02:00,
2013-06-14 08:12:00,54.0,50.0,30.03,WSW,252,3.0,9.0,86,0.00,,,0.00,,2013-06-14 07:12:00,
2013-06-14 08:22:00,54.0,50.0,30.03,WSW,252,3.0,9.0,86,0.00,,,0.00,,2013-06-14 07:22:00,
2013-06-14 08:33:00,54.0,50.0,30.03,WSW,252,3.0,9.0,86,0.00,,,0.00,,2013-06-14 07:33:00,
2013-06-14 09:23:00,57.0,52.0,30.04,WSW,253,8.0,15.0,82,0.00,,,0.00,,2013-06-14 08:23:00,
2013-06-14 09:33:00,57.0,52.0,30.04,WSW,253,8.0,15.0,82,0.00,,,0.00,,2013-06-14 08:33:00,
2013-06-14 09:43:00,57.0,52.0,30.04,WSW,253,8.0,15.0,82,0.00,,,0.00,,2013-06-14 08:43:00,
2013-06-14 09:53:00,57.0,52.0,30.04,WSW,253,8.0,15.0,82,0.00,,,0.00,,2013-06-14 08:53:00,
2013-06-14 10:01:00,57.0,52.0,30.04,WSW,253,8.0,15.0,82,0.00,,,0.00,,2013-06-14 09:01:00,
2013-06-14 10:22:00,59.0,52.0,30.02,WNW,292,10.0,16.0,77,0.00,,,0.00,,2013-06-14 09:22:00,
2013-06-14 10:33:00,59.0,52.0,30.02,WNW,292,10.0,16.0,77,0.00,,,0.00,,2013-06-14 09:33:00,
2013-06-14 10:43:00,59.0,52.0,30.03,WSW,240,9.0,16.0,78,0.00,,,0.00,,2013-06-14 09:43:00,
2013-06-14 10:53:00,59.0,52.0,30.03,WSW,240,9.0,16.0,78,0.00,,,0.00,,2013-06-14 09:53:00,
2013-06-14 11:01:00,59.0,52.0,30.03,WSW,240,9.0,16.0,78,0.00,,,0.00,,2013-06-14 10:01:00,
2013-06-14 11:11:00,59.0,52.0,30.03,WSW,240,9.0,16.0,78,0.00,,,0.00,,2013-06-14 10:11:00,
2013-06-14 11:21:00,60.0,52.0,30.02,West,277,8.0,14.0,76,0.00,,,0.00,,2013-06-14 10:21:00,
2013-06-14 11:34:00,60.0,52.0,30.02,West,277,8.0,14.0,76,0.00,,,0.00,,2013-06-14 10:34:00,
2013-06-14 11:44:00,60.0,52.0,30.02,West,277,8.0,14.0,76,0.00,,,0.00,,2013-06-14 10:44:00,
2013-06-14 11:52:00,60.0,52.0,30.02,West,277,8.0,14.0,76,0.00,,,0.00,,2013-06-14 10:52:00,
2013-06-14 12:01:00,61.0,52.0,30.01,WNW,287,7.0,15.0,73,0.00,,,0.00,,2013-06-14 11:01:00,
2013-06-14 12:11:00,61.0,52.0,30.01,WNW,287,7.0,15.0,73,0.00,,,0.00,,2013-06-14 11:11:00,
2013-06-14 12:22:00,63.0,52.0,29.99,West,272,6.0,16.0,68,0.00,,,0.00,,2013-06-14 11:22:00,
2013-06-14 12:32:00,63.0,52.0,29.99,West,272,6.0,16.0,68,0.00,,,0.00,,2013-06-14 11:32:00,
2013-06-14 12:43:00,63.0,52.0,29.99,West,272,6.0,16.0,68,0.00,,,0.00,,2013-06-14 11:43:00,
2013-06-14 12:52:00,63.0,51.0,29.99,WSW,258,9.0,17.0,66,0.00,,,0.00,,2013-06-14 11:52:00,
2013-06-14 13:01:00,63.0,51.0,29.99,WSW,258,9.0,17.0,66,0.00,,,0.00,,2013-06-14 12:01:00,
2013-06-14 13:11:00,63.0,51.0,29.99,WSW,258,9.0,17.0,66,0.00,,,0.00,,2013-06-14 12:11:00,
2013-06-14 13:22:00,64.0,52.0,29.98,WNW,287,7.0,21.0,65,0.00,,,0.00,,2013-06-14 12:22:00,
2013-06-14 13:32:00,64.0,52.0,29.98,WNW,287,7.0,21.0,65,0.00,,,0.00,,2013-06-14 12:32:00,
2013-06-14 13:43:00,64.0,52.0,29.98,WNW,287,7.0,21.0,65,0.00,,,0.00,,2013-06-14 12:43:00,
2013-06-14 13:52:00,65.0,51.0,29.98,WNW,289,12.0,22.0,60,0.00,,,0.00,,2013-06-14 12:52:00,
2013-06-14 14:01:00,65.0,51.0,29.98,WNW,289,12.0,22.0,60,0.00,,,0.00,,2013-06-14 13:01:00,
2013-06-14 14:11:00,66.0,52.0,29.97,West,274,9.0,20.0,60,0.00,,,0.00,,2013-06-14 13:11:00,
2013-06-14 14:22:00,66.0,51.0,29.97,WNW,285,9.0,17.0,58,0.00,,,0.00,,2013-06-14 13:22:00,
2013-06-14 14:33:00,66.0,51.0,29.97,WNW,285,9.0,17.0,58,0.00,,,0.00,,2013-06-14 13:33:00,
2013-06-14 14:43:00,66.0,51.0,29.97,WNW,285,9.0,17.0,58,0.00,,,0.00,,2013-06-14 13:43:00,
2013-06-14 14:52:00,66.0,51.0,29.97,WNW,285,9.0,17.0,58,0.00,,,0.00,,2013-06-14 13:52:00,
2013-06-14 15:22:00,68.0,50.0,29.95,West,272,6.0,20.0,53,0.00,,,0.00,,2013-06-14 14:22:00,
2013-06-14 15:34:00,68.0,50.0,29.95,West,272,6.0,20.0,53,0.00,,,0.00,,2013-06-14 14:34:00,
2013-06-14 15:43:00,68.0,50.0,29.95,West,272,6.0,20.0,53,0.00,,,0.00,,2013-06-14 14:43:00,
2013-06-14 15:52:00,68.0,50.0,29.95,West,272,6.0,20.0,53,0.00,,,0.00,,2013-06-14 14:52:00,
2013-06-14 16:01:00,68.0,50.0,29.95,West,272,6.0,20.0,53,0.00,,,0.00,,2013-06-14 15:01:00,
2013-06-14 16:23:00,68.0,45.0,29.93,West,279,8.0,20.0,44,0.00,,,0.00,,2013-06-14 15:23:00,
2013-06-14 16:33:00,68.0,45.0,29.93,West,279,8.0,20.0,44,0.00,,,0.00,,2013-06-14 15:33:00,
2013-06-14 16:44:00,68.0,45.0,29.93,West,279,8.0,20.0,44,0.00,,,0.00,,2013-06-14 15:44:00,
2013-06-14 16:53:00,68.0,45.0,29.93,West,279,8.0,20.0,44,0.00,,,0.00,,2013-06-14 15:53:00,
2013-06-14 17:01:00,68.0,45.0,29.93,West,279,8.0,20.0,44,0.00,,,0.00,,2013-06-14 16:01:00,
2013-06-14 17:23:00,67.0,43.0,29.92,WNW,291,11.0,21.0,42,0.00,,,0.00,,2013-06-14 16:23:00,
2013-06-14 17:33:00,67.0,43.0,29.92,WNW,291,11.0,21.0,42,0.00,,,0.00,,2013-06-14 16:33:00,
2013-06-14 17:43:00,67.0,43.0,29.92,WNW,291,11.0,21.0,42,0.00,,,0.00,,2013-06-14 16:43:00,
2013-06-14 17:53:00,67.0,43.0,29.92,WNW,291,11.0,21.0,42,0.00,,,0.00,,2013-06-14 16:53:00,
2013-06-14 18:02:00,67.0,43.0,29.92,WNW,291,11.0,21.0,42,0.00,,,0.00,,2013-06-14 17:02:00,
2013-06-14 18:41:00,63.0,49.0,29.90,West,264,9.0,21.0,61,0.00,,,0.00,,2013-06-14 17:41:00,
2013-06-14 19:02:00,63.0,49.0,29.90,West,264,9.0,21.0,61,0.00,,,0.00,,2013-06-14 18:02:00,
2013-06-14 19:11:00,63.0,49.0,29.90,West,264,9.0,21.0,61,0.00,,,0.00,,2013-06-14 18:11:00,
2013-06-14 19:21:00,63.0,49.0,29.90,West,264,9.0,21.0,61,0.00,,,0.00,,2013-06-14 18:21:00,
2013-06-14 19:32:00,63.0,49.0,29.90,West,264,9.0,21.0,61,0.00,,,0.00,,2013-06-14 18:32:00,
2013-06-14 20:01:00,62.0,51.0,29.88,West,263,5.0,17.0,66,0.00,,,0.00,,2013-06-14 19:01:00,
2013-06-14 20:11:00,62.0,51.0,29.88,West,263,5.0,17.0,66,0.00,,,0.00,,2013-06-14 19:11:00,
2013-06-14 20:21:00,62.0,51.0,29.88,West,263,5.0,17.0,66,0.00,,,0.00,,2013-06-14 19:21:00,
2013-06-14 20:32:00,62.0,51.0,29.88,West,263,5.0,17.0,66,0.00,,,0.00,,2013-06-14 19:32:00,
2013-06-14 20:42:00,61.0,50.0,29.87,WSW,240,9.0,14.0,66,0.00,,,0.00,,2013-06-14 19:42:00,
2013-06-14 20:53:00,61.0,50.0,29.87,WSW,240,9.0,14.0,66,0.00,,,0.00,,2013-06-14 19:53:00,
2013-06-14 21:01:00,61.0,50.0,29.87,WSW,240,9.0,14.0,66,0.00,,,0.00,,2013-06-14 20:01:00,
2013-06-14 21:11:00,61.0,50.0,29.87,WSW,240,9.0,14.0,66,0.00,,,0.00,,2013-06-14 20:11:00,
2013-06-14 23:01:00,59.0,51.0,29.80,SW,231,6.0,13.0,74,0.00,,,0.00,,2013-06-14 22:01:00,
2013-06-14 23:22:00,59.0,51.0,29.80,SW,231,6.0,13.0,74,0.00,,,0.00,,2013-06-14 22:22:00,
2013-06-14 23:33:00,59.0,51.0,29.80,SW,231,6.0,13.0,74,0.00,,,0.00,,2013-06-14 22:33:00,
2013-06-14 23:43:00,59.0,51.0,29.80,SW,231,6.0,13.0,74,0.00,,,0.00,,2013-06-14 22:43:00,
2013-06-14 23:53:00,59.0,51.0,29.80,SW,231,6.0,13.0,74,0.00,,,0.00,,2013-06-14 22:53:00,